Dirj, Libya
Current Conditions -  °F | °C
As of 3:00 PM on Monday 24 Nov 2014 (Local Time) from DAUZ Reporting Station
Clear Clear  
Wind Chill: 75°   Ceiling: Unl
Heat Index: 75°   Visibility: 6mi
Dew Point: 28°   Wind: 17mph
Humidity: 18%   Direction: 130°SE
Pressure: 30.15"   Gusts: NA
Location:  30.17°N, 10.46°E
Report Text: DAUZ 241200Z 13015KT CAVOK 24/M02 Q1021
Loading
Personal Weather Stations






























Interactive Weather Map New forecast layout! Learn more

10-Day Weather Forecast

Advertisements
Track Severe Weather on mobile